sensor_id;sensor_type;location;lat;lon;timestamp;temperature;humidity
13982;DHT22;7065;50.880;5.502;2023-02-23T00:00:09;8.20;99.90
13982;DHT22;7065;50.880;5.502;2023-02-23T00:02:56;8.20;99.90
13982;DHT22;7065;50.880;5.502;2023-02-23T00:05:24;8.20;99.90
13982;DHT22;7065;50.880;5.502;2023-02-23T00:07:51;8.20;99.90
13982;DHT22;7065;50.880;5.502;2023-02-23T00:10:17;8.20;99.90
13982;DHT22;7065;50.880;5.502;2023-02-23T00:12:46;8.10;99.90
13982;DHT22;7065;50.880;5.502;2023-02-23T00:15:14;8.10;99.90
13982;DHT22;7065;50.880;5.502;2023-02-23T00:17:41;8.10;99.90
13982;DHT22;7065;50.880;5.502;2023-02-23T00:20:10;8.10;99.90
13982;DHT22;7065;50.880;5.502;2023-02-23T00:22:39;8.10;99.90
13982;DHT22;7065;50.880;5.502;2023-02-23T00:25:07;8.10;99.90
13982;DHT22;7065;50.880;5.502;2023-02-23T00:27:34;8.10;99.90
13982;DHT22;7065;50.880;5.502;2023-02-23T00:30:00;8.00;99.90
13982;DHT22;7065;50.880;5.502;2023-02-23T00:32:26;8.00;99.90
13982;DHT22;7065;50.880;5.502;2023-02-23T00:34:52;8.00;99.90
13982;DHT22;7065;50.880;5.502;2023-02-23T00:37:18;8.00;99.90
13982;DHT22;7065;50.880;5.502;2023-02-23T00:39:46;8.00;99.90
13982;DHT22;7065;50.880;5.502;2023-02-23T00:42:11;8.00;99.90
13982;DHT22;7065;50.880;5.502;2023-02-23T00:44:38;8.00;99.90
13982;DHT22;7065;50.880;5.502;2023-02-23T00:47:05;8.00;99.90
13982;DHT22;7065;50.880;5.502;2023-02-23T00:49:31;8.00;99.90
13982;DHT22;7065;50.880;5.502;2023-02-23T00:52:00;8.00;99.90
13982;DHT22;7065;50.880;5.502;2023-02-23T00:54:26;7.90;99.90
13982;DHT22;7065;50.880;5.502;2023-02-23T00:56:51;8.00;99.90
13982;DHT22;7065;50.880;5.502;2023-02-23T00:59:18;8.00;99.90
13982;DHT22;7065;50.880;5.502;2023-02-23T01:01:44;8.00;99.90
13982;DHT22;7065;50.880;5.502;2023-02-23T01:04:11;8.00;99.90
13982;DHT22;7065;50.880;5.502;2023-02-23T01:06:38;8.00;99.90
13982;DHT22;7065;50.880;5.502;2023-02-23T01:09:10;8.00;99.90
13982;DHT22;7065;50.880;5.502;2023-02-23T01:11:37;8.00;99.90
13982;DHT22;7065;50.880;5.502;2023-02-23T01:14:06;8.00;99.90
13982;DHT22;7065;50.880;5.502;2023-02-23T01:16:33;8.00;99.90
13982;DHT22;7065;50.880;5.502;2023-02-23T01:19:01;8.00;99.90
13982;DHT22;7065;50.880;5.502;2023-02-23T01:21:31;8.00;99.90
13982;DHT22;7065;50.880;5.502;2023-02-23T01:23:58;8.00;99.90
13982;DHT22;7065;50.880;5.502;2023-02-23T01:26:26;8.00;99.90
13982;DHT22;7065;50.880;5.502;2023-02-23T01:28:55;8.00;99.90
13982;DHT22;7065;50.880;5.502;2023-02-23T01:31:23;8.00;99.90
13982;DHT22;7065;50.880;5.502;2023-02-23T01:33:53;8.00;99.90
13982;DHT22;7065;50.880;5.502;2023-02-23T01:36:19;8.00;99.90
13982;DHT22;7065;50.880;5.502;2023-02-23T01:38:45;8.00;99.90
13982;DHT22;7065;50.880;5.502;2023-02-23T01:41:11;8.00;99.90
13982;DHT22;7065;50.880;5.502;2023-02-23T01:44:00;8.00;99.90
13982;DHT22;7065;50.880;5.502;2023-02-23T01:46:33;8.00;99.90
13982;DHT22;7065;50.880;5.502;2023-02-23T01:49:00;8.00;99.90
13982;DHT22;7065;50.880;5.502;2023-02-23T01:51:29;8.00;99.90
13982;DHT22;7065;50.880;5.502;2023-02-23T01:54:24;8.00;99.90
13982;DHT22;7065;50.880;5.502;2023-02-23T01:56:54;8.00;99.90
13982;DHT22;7065;50.880;5.502;2023-02-23T01:59:27;8.00;99.90
13982;DHT22;7065;50.880;5.502;2023-02-23T02:01:53;8.00;99.90
13982;DHT22;7065;50.880;5.502;2023-02-23T02:04:21;8.00;99.90
13982;DHT22;7065;50.880;5.502;2023-02-23T02:06:48;8.00;99.90
13982;DHT22;7065;50.880;5.502;2023-02-23T02:09:19;8.00;99.90
13982;DHT22;7065;50.880;5.502;2023-02-23T02:11:50;8.00;99.90
13982;DHT22;7065;50.880;5.502;2023-02-23T02:14:28;8.00;99.90
13982;DHT22;7065;50.880;5.502;2023-02-23T02:31:15;8.00;99.90
13982;DHT22;7065;50.880;5.502;2023-02-23T02:42:53;8.00;99.90
13982;DHT22;7065;50.880;5.502;2023-02-23T02:45:27;8.00;99.90
13982;DHT22;7065;50.880;5.502;2023-02-23T02:47:58;8.00;99.90
13982;DHT22;7065;50.880;5.502;2023-02-23T02:50:35;7.90;99.90
13982;DHT22;7065;50.880;5.502;2023-02-23T02:53:10;7.90;99.90
13982;DHT22;7065;50.880;5.502;2023-02-23T02:55:40;7.90;99.90
13982;DHT22;7065;50.880;5.502;2023-02-23T02:58:10;8.00;99.90
13982;DHT22;7065;50.880;5.502;2023-02-23T03:00:46;7.90;99.90
13982;DHT22;7065;50.880;5.502;2023-02-23T03:03:43;7.90;99.90
13982;DHT22;7065;50.880;5.502;2023-02-23T03:06:33;7.90;99.90
13982;DHT22;7065;50.880;5.502;2023-02-23T03:09:46;7.90;99.90
13982;DHT22;7065;50.880;5.502;2023-02-23T03:24:56;8.00;99.90
13982;DHT22;7065;50.880;5.502;2023-02-23T03:30:46;8.00;99.90
13982;DHT22;7065;50.880;5.502;2023-02-23T03:33:39;8.00;99.90
13982;DHT22;7065;50.880;5.502;2023-02-23T03:36:26;8.00;99.90
13982;DHT22;7065;50.880;5.502;2023-02-23T03:39:23;7.90;99.90
13982;DHT22;7065;50.880;5.502;2023-02-23T03:42:13;8.00;99.90
13982;DHT22;7065;50.880;5.502;2023-02-23T03:45:05;7.90;99.90
13982;DHT22;7065;50.880;5.502;2023-02-23T03:47:51;8.00;99.90
13982;DHT22;7065;50.880;5.502;2023-02-23T03:50:44;8.00;99.90
13982;DHT22;7065;50.880;5.502;2023-02-23T03:53:46;8.00;99.90
13982;DHT22;7065;50.880;5.502;2023-02-23T03:56:35;8.00;99.90
13982;DHT22;7065;50.880;5.502;2023-02-23T03:59:25;7.90;99.90
13982;DHT22;7065;50.880;5.502;2023-02-23T04:02:14;7.90;99.90
13982;DHT22;7065;50.880;5.502;2023-02-23T04:05:07;7.90;99.90
13982;DHT22;7065;50.880;5.502;2023-02-23T04:07:53;7.90;99.90
13982;DHT22;7065;50.880;5.502;2023-02-23T04:10:43;7.90;99.90
13982;DHT22;7065;50.880;5.502;2023-02-23T04:13:29;7.90;99.90
13982;DHT22;7065;50.880;5.502;2023-02-23T04:16:16;7.90;99.90
13982;DHT22;7065;50.880;5.502;2023-02-23T04:18:42;7.90;99.90
13982;DHT22;7065;50.880;5.502;2023-02-23T04:21:08;7.90;99.90
13982;DHT22;7065;50.880;5.502;2023-02-23T04:23:35;8.00;99.90
13982;DHT22;7065;50.880;5.502;2023-02-23T04:26:02;8.00;99.90
13982;DHT22;7065;50.880;5.502;2023-02-23T04:28:29;7.90;99.90
13982;DHT22;7065;50.880;5.502;2023-02-23T04:30:55;7.90;99.90
13982;DHT22;7065;50.880;5.502;2023-02-23T04:33:21;7.90;99.90
13982;DHT22;7065;50.880;5.502;2023-02-23T04:35:51;7.90;99.90
13982;DHT22;7065;50.880;5.502;2023-02-23T04:38:18;7.90;99.90
13982;DHT22;7065;50.880;5.502;2023-02-23T04:40:44;7.90;99.90
13982;DHT22;7065;50.880;5.502;2023-02-23T04:43:11;7.90;99.90
13982;DHT22;7065;50.880;5.502;2023-02-23T04:45:38;7.90;99.90
13982;DHT22;7065;50.880;5.502;2023-02-23T04:48:04;7.90;99.90
13982;DHT22;7065;50.880;5.502;2023-02-23T04:50:29;8.00;99.90
13982;DHT22;7065;50.880;5.502;2023-02-23T04:52:55;8.00;99.90
13982;DHT22;7065;50.880;5.502;2023-02-23T04:55:23;8.00;99.90
13982;DHT22;7065;50.880;5.502;2023-02-23T04:57:51;7.90;99.90
13982;DHT22;7065;50.880;5.502;2023-02-23T05:00:17;7.90;99.90
13982;DHT22;7065;50.880;5.502;2023-02-23T05:02:43;7.90;99.90
13982;DHT22;7065;50.880;5.502;2023-02-23T05:05:10;8.00;99.90
13982;DHT22;7065;50.880;5.502;2023-02-23T05:07:37;7.90;99.90
13982;DHT22;7065;50.880;5.502;2023-02-23T05:10:04;7.90;99.90
13982;DHT22;7065;50.880;5.502;2023-02-23T05:12:30;7.90;99.90
13982;DHT22;7065;50.880;5.502;2023-02-23T05:14:56;7.90;99.90
13982;DHT22;7065;50.880;5.502;2023-02-23T05:17:22;7.90;99.90
13982;DHT22;7065;50.880;5.502;2023-02-23T05:19:48;7.90;99.90
13982;DHT22;7065;50.880;5.502;2023-02-23T05:22:14;7.90;99.90
13982;DHT22;7065;50.880;5.502;2023-02-23T05:24:41;7.90;99.90
13982;DHT22;7065;50.880;5.502;2023-02-23T05:27:08;7.90;99.90
13982;DHT22;7065;50.880;5.502;2023-02-23T05:29:34;7.90;99.90
13982;DHT22;7065;50.880;5.502;2023-02-23T05:32:00;7.90;99.90
13982;DHT22;7065;50.880;5.502;2023-02-23T05:34:26;7.90;99.90
13982;DHT22;7065;50.880;5.502;2023-02-23T05:36:51;7.90;99.90
13982;DHT22;7065;50.880;5.502;2023-02-23T05:39:18;7.90;99.90
13982;DHT22;7065;50.880;5.502;2023-02-23T05:41:44;7.90;99.90
13982;DHT22;7065;50.880;5.502;2023-02-23T05:44:10;7.90;99.90
13982;DHT22;7065;50.880;5.502;2023-02-23T05:46:36;7.90;99.90
13982;DHT22;7065;50.880;5.502;2023-02-23T05:49:02;8.00;99.90
13982;DHT22;7065;50.880;5.502;2023-02-23T05:51:30;7.90;99.90
13982;DHT22;7065;50.880;5.502;2023-02-23T05:53:56;8.00;99.90
13982;DHT22;7065;50.880;5.502;2023-02-23T05:56:22;7.90;99.90
13982;DHT22;7065;50.880;5.502;2023-02-23T05:58:52;7.90;99.90
13982;DHT22;7065;50.880;5.502;2023-02-23T06:01:19;7.90;99.90
13982;DHT22;7065;50.880;5.502;2023-02-23T06:03:46;7.90;99.90
13982;DHT22;7065;50.880;5.502;2023-02-23T06:06:12;7.90;99.90
13982;DHT22;7065;50.880;5.502;2023-02-23T06:08:38;7.90;99.90
13982;DHT22;7065;50.880;5.502;2023-02-23T06:11:04;7.90;99.90
13982;DHT22;7065;50.880;5.502;2023-02-23T06:13:30;7.90;99.90
13982;DHT22;7065;50.880;5.502;2023-02-23T06:15:57;7.90;99.90
13982;DHT22;7065;50.880;5.502;2023-02-23T06:18:27;7.90;99.90
13982;DHT22;7065;50.880;5.502;2023-02-23T06:20:53;7.90;99.90
13982;DHT22;7065;50.880;5.502;2023-02-23T06:23:19;7.90;99.90
13982;DHT22;7065;50.880;5.502;2023-02-23T06:25:45;7.90;99.90
13982;DHT22;7065;50.880;5.502;2023-02-23T06:28:11;8.00;99.90
13982;DHT22;7065;50.880;5.502;2023-02-23T06:30:38;7.90;99.90
13982;DHT22;7065;50.880;5.502;2023-02-23T06:33:05;8.00;99.90
13982;DHT22;7065;50.880;5.502;2023-02-23T06:35:31;8.00;99.90
13982;DHT22;7065;50.880;5.502;2023-02-23T06:37:57;7.90;99.90
13982;DHT22;7065;50.880;5.502;2023-02-23T06:40:24;7.90;99.90
13982;DHT22;7065;50.880;5.502;2023-02-23T06:42:49;8.00;99.90
13982;DHT22;7065;50.880;5.502;2023-02-23T06:45:16;7.90;99.90
13982;DHT22;7065;50.880;5.502;2023-02-23T06:47:43;8.00;99.90
13982;DHT22;7065;50.880;5.502;2023-02-23T06:50:10;8.00;99.90
13982;DHT22;7065;50.880;5.502;2023-02-23T06:52:36;8.00;99.90
13982;DHT22;7065;50.880;5.502;2023-02-23T06:55:02;8.00;99.90
13982;DHT22;7065;50.880;5.502;2023-02-23T06:57:29;8.00;99.90
13982;DHT22;7065;50.880;5.502;2023-02-23T06:59:54;8.00;99.90
13982;DHT22;7065;50.880;5.502;2023-02-23T07:02:21;8.00;99.90
13982;DHT22;7065;50.880;5.502;2023-02-23T07:04:47;8.00;99.90
13982;DHT22;7065;50.880;5.502;2023-02-23T07:07:13;8.00;99.90
13982;DHT22;7065;50.880;5.502;2023-02-23T07:09:40;8.00;99.90
13982;DHT22;7065;50.880;5.502;2023-02-23T07:12:07;8.00;99.90
13982;DHT22;7065;50.880;5.502;2023-02-23T07:14:33;8.00;99.90
13982;DHT22;7065;50.880;5.502;2023-02-23T07:16:59;8.00;99.90
13982;DHT22;7065;50.880;5.502;2023-02-23T07:19:25;8.00;99.90
13982;DHT22;7065;50.880;5.502;2023-02-23T07:21:50;8.00;99.90
13982;DHT22;7065;50.880;5.502;2023-02-23T07:24:17;8.00;99.90
13982;DHT22;7065;50.880;5.502;2023-02-23T07:26:42;8.00;99.90
13982;DHT22;7065;50.880;5.502;2023-02-23T07:29:11;8.10;99.90
13982;DHT22;7065;50.880;5.502;2023-02-23T07:31:38;8.00;99.90
13982;DHT22;7065;50.880;5.502;2023-02-23T07:34:04;8.00;99.90
13982;DHT22;7065;50.880;5.502;2023-02-23T07:36:30;8.10;99.90
13982;DHT22;7065;50.880;5.502;2023-02-23T07:38:55;8.10;99.90
13982;DHT22;7065;50.880;5.502;2023-02-23T07:41:22;8.10;99.90
13982;DHT22;7065;50.880;5.502;2023-02-23T07:43:47;8.10;99.90
13982;DHT22;7065;50.880;5.502;2023-02-23T07:46:13;8.10;99.90
13982;DHT22;7065;50.880;5.502;2023-02-23T07:48:40;8.10;99.90
13982;DHT22;7065;50.880;5.502;2023-02-23T07:51:12;8.10;99.90
13982;DHT22;7065;50.880;5.502;2023-02-23T07:53:40;8.10;99.90
13982;DHT22;7065;50.880;5.502;2023-02-23T07:56:07;8.00;99.90
13982;DHT22;7065;50.880;5.502;2023-02-23T07:58:35;8.00;99.90
13982;DHT22;7065;50.880;5.502;2023-02-23T08:01:01;8.00;99.90
13982;DHT22;7065;50.880;5.502;2023-02-23T08:03:27;8.00;99.90
13982;DHT22;7065;50.880;5.502;2023-02-23T08:05:53;7.90;99.90
13982;DHT22;7065;50.880;5.502;2023-02-23T08:08:18;7.90;99.90
13982;DHT22;7065;50.880;5.502;2023-02-23T08:10:45;7.90;99.90
13982;DHT22;7065;50.880;5.502;2023-02-23T08:13:13;7.90;99.90
13982;DHT22;7065;50.880;5.502;2023-02-23T08:15:38;7.90;99.90
13982;DHT22;7065;50.880;5.502;2023-02-23T08:18:05;7.80;99.90
13982;DHT22;7065;50.880;5.502;2023-02-23T08:20:31;7.80;99.90
13982;DHT22;7065;50.880;5.502;2023-02-23T08:22:57;7.70;99.90
13982;DHT22;7065;50.880;5.502;2023-02-23T08:25:24;7.70;99.90
13982;DHT22;7065;50.880;5.502;2023-02-23T08:27:52;7.70;99.90
13982;DHT22;7065;50.880;5.502;2023-02-23T08:30:21;7.70;99.90
13982;DHT22;7065;50.880;5.502;2023-02-23T08:32:47;7.60;99.90
13982;DHT22;7065;50.880;5.502;2023-02-23T08:35:13;7.70;99.90
13982;DHT22;7065;50.880;5.502;2023-02-23T08:37:39;7.60;99.90
13982;DHT22;7065;50.880;5.502;2023-02-23T08:40:07;7.60;99.90
13982;DHT22;7065;50.880;5.502;2023-02-23T08:42:33;7.70;99.90
13982;DHT22;7065;50.880;5.502;2023-02-23T08:44:59;7.70;99.90
13982;DHT22;7065;50.880;5.502;2023-02-23T08:47:26;7.70;99.90
13982;DHT22;7065;50.880;5.502;2023-02-23T08:49:52;7.80;99.90
13982;DHT22;7065;50.880;5.502;2023-02-23T08:52:21;7.80;99.90
13982;DHT22;7065;50.880;5.502;2023-02-23T08:54:46;7.80;99.90
13982;DHT22;7065;50.880;5.502;2023-02-23T08:57:13;7.80;99.90
13982;DHT22;7065;50.880;5.502;2023-02-23T08:59:39;7.80;99.90
13982;DHT22;7065;50.880;5.502;2023-02-23T09:02:06;7.80;99.90
13982;DHT22;7065;50.880;5.502;2023-02-23T09:04:33;7.80;99.90
13982;DHT22;7065;50.880;5.502;2023-02-23T09:07:02;7.80;99.90
13982;DHT22;7065;50.880;5.502;2023-02-23T09:09:28;7.80;99.90
13982;DHT22;7065;50.880;5.502;2023-02-23T09:11:54;7.80;99.90
13982;DHT22;7065;50.880;5.502;2023-02-23T09:14:20;7.80;99.90
13982;DHT22;7065;50.880;5.502;2023-02-23T09:16:46;7.90;99.90
13982;DHT22;7065;50.880;5.502;2023-02-23T09:19:12;7.80;99.90
13982;DHT22;7065;50.880;5.502;2023-02-23T09:21:39;7.80;99.90
13982;DHT22;7065;50.880;5.502;2023-02-23T09:24:05;7.80;99.90
13982;DHT22;7065;50.880;5.502;2023-02-23T09:26:32;7.80;99.90
13982;DHT22;7065;50.880;5.502;2023-02-23T09:29:00;7.80;99.90
13982;DHT22;7065;50.880;5.502;2023-02-23T09:31:26;7.80;99.90
13982;DHT22;7065;50.880;5.502;2023-02-23T09:33:53;7.80;99.90
13982;DHT22;7065;50.880;5.502;2023-02-23T09:36:22;7.80;99.90
13982;DHT22;7065;50.880;5.502;2023-02-23T09:38:50;7.80;99.90
13982;DHT22;7065;50.880;5.502;2023-02-23T09:49:03;8.00;99.90
13982;DHT22;7065;50.880;5.502;2023-02-23T09:51:36;8.00;99.90
13982;DHT22;7065;50.880;5.502;2023-02-23T09:54:04;8.10;99.90
13982;DHT22;7065;50.880;5.502;2023-02-23T09:56:36;8.20;99.90
13982;DHT22;7065;50.880;5.502;2023-02-23T09:59:09;8.30;99.90
13982;DHT22;7065;50.880;5.502;2023-02-23T10:02:09;8.30;99.90
13982;DHT22;7065;50.880;5.502;2023-02-23T10:04:44;8.40;99.90
13982;DHT22;7065;50.880;5.502;2023-02-23T10:10:44;8.30;99.90
13982;DHT22;7065;50.880;5.502;2023-02-23T10:16:18;8.50;99.90
13982;DHT22;7065;50.880;5.502;2023-02-23T10:18:52;8.50;99.90
13982;DHT22;7065;50.880;5.502;2023-02-23T10:21:37;8.50;99.90
13982;DHT22;7065;50.880;5.502;2023-02-23T10:24:18;8.60;99.90
13982;DHT22;7065;50.880;5.502;2023-02-23T10:26:53;8.60;99.90
13982;DHT22;7065;50.880;5.502;2023-02-23T10:34:40;8.70;99.90
13982;DHT22;7065;50.880;5.502;2023-02-23T10:37:09;8.70;99.90
13982;DHT22;7065;50.880;5.502;2023-02-23T10:39:35;8.70;99.90
13982;DHT22;7065;50.880;5.502;2023-02-23T10:42:08;8.70;99.90
13982;DHT22;7065;50.880;5.502;2023-02-23T10:44:38;8.70;99.90
13982;DHT22;7065;50.880;5.502;2023-02-23T10:47:12;8.80;99.90
13982;DHT22;7065;50.880;5.502;2023-02-23T10:49:50;8.80;99.90
13982;DHT22;7065;50.880;5.502;2023-02-23T10:52:41;8.80;99.90
13982;DHT22;7065;50.880;5.502;2023-02-23T10:55:31;8.80;99.90
13982;DHT22;7065;50.880;5.502;2023-02-23T10:58:11;8.80;99.90
13982;DHT22;7065;50.880;5.502;2023-02-23T11:03:47;8.80;99.90
13982;DHT22;7065;50.880;5.502;2023-02-23T11:06:29;8.80;99.90
13982;DHT22;7065;50.880;5.502;2023-02-23T11:08:55;8.90;99.90
13982;DHT22;7065;50.880;5.502;2023-02-23T11:11:27;9.00;99.90
13982;DHT22;7065;50.880;5.502;2023-02-23T11:13:55;9.00;99.90
13982;DHT22;7065;50.880;5.502;2023-02-23T11:16:27;9.10;99.90
13982;DHT22;7065;50.880;5.502;2023-02-23T11:21:33;9.30;99.90
13982;DHT22;7065;50.880;5.502;2023-02-23T11:24:20;9.40;99.90
13982;DHT22;7065;50.880;5.502;2023-02-23T11:26:48;9.40;99.90
13982;DHT22;7065;50.880;5.502;2023-02-23T11:29:37;9.40;99.90
13982;DHT22;7065;50.880;5.502;2023-02-23T11:34:38;9.40;99.90
13982;DHT22;7065;50.880;5.502;2023-02-23T11:39:53;9.50;99.90
13982;DHT22;7065;50.880;5.502;2023-02-23T11:42:21;9.50;99.90
13982;DHT22;7065;50.880;5.502;2023-02-23T11:45:02;9.50;99.90
13982;DHT22;7065;50.880;5.502;2023-02-23T11:47:29;9.50;99.90
13982;DHT22;7065;50.880;5.502;2023-02-23T11:49:56;9.40;99.90
13982;DHT22;7065;50.880;5.502;2023-02-23T11:52:23;9.30;99.90
13982;DHT22;7065;50.880;5.502;2023-02-23T11:55:01;9.20;99.90
13982;DHT22;7065;50.880;5.502;2023-02-23T11:57:32;9.30;99.90
13982;DHT22;7065;50.880;5.502;2023-02-23T12:00:07;9.30;99.90
13982;DHT22;7065;50.880;5.502;2023-02-23T12:02:50;9.40;99.90
13982;DHT22;7065;50.880;5.502;2023-02-23T12:05:27;9.40;99.90
13982;DHT22;7065;50.880;5.502;2023-02-23T12:08:12;9.40;99.90
13982;DHT22;7065;50.880;5.502;2023-02-23T12:10:48;9.50;99.90
13982;DHT22;7065;50.880;5.502;2023-02-23T12:16:22;9.60;99.90
13982;DHT22;7065;50.880;5.502;2023-02-23T12:21:37;9.60;99.90
13982;DHT22;7065;50.880;5.502;2023-02-23T12:43:43;9.40;99.90
13982;DHT22;7065;50.880;5.502;2023-02-23T12:46:36;9.40;99.90
13982;DHT22;7065;50.880;5.502;2023-02-23T12:54:12;9.30;99.90
13982;DHT22;7065;50.880;5.502;2023-02-23T12:56:49;9.40;99.90
13982;DHT22;7065;50.880;5.502;2023-02-23T13:01:58;9.60;99.90
13982;DHT22;7065;50.880;5.502;2023-02-23T13:15:23;9.70;99.90
13982;DHT22;7065;50.880;5.502;2023-02-23T13:18:00;9.60;99.90
13982;DHT22;7065;50.880;5.502;2023-02-23T13:20:47;9.60;99.90
13982;DHT22;7065;50.880;5.502;2023-02-23T13:29:22;9.40;99.90
13982;DHT22;7065;50.880;5.502;2023-02-23T13:31:51;9.50;99.90
13982;DHT22;7065;50.880;5.502;2023-02-23T13:34:29;9.40;99.90
13982;DHT22;7065;50.880;5.502;2023-02-23T13:36:58;9.40;99.90
13982;DHT22;7065;50.880;5.502;2023-02-23T13:50:34;9.50;99.90
13982;DHT22;7065;50.880;5.502;2023-02-23T13:53:05;9.50;99.90
13982;DHT22;7065;50.880;5.502;2023-02-23T13:55:44;9.50;99.90
13982;DHT22;7065;50.880;5.502;2023-02-23T13:58:25;9.50;99.90
13982;DHT22;7065;50.880;5.502;2023-02-23T14:01:10;9.40;99.90
13982;DHT22;7065;50.880;5.502;2023-02-23T14:04:06;9.40;99.90
13982;DHT22;7065;50.880;5.502;2023-02-23T14:06:38;9.40;99.90
13982;DHT22;7065;50.880;5.502;2023-02-23T14:09:33;9.30;99.90
13982;DHT22;7065;50.880;5.502;2023-02-23T14:12:15;9.30;99.90
13982;DHT22;7065;50.880;5.502;2023-02-23T14:14:45;9.30;99.90
13982;DHT22;7065;50.880;5.502;2023-02-23T14:22:16;9.30;99.90
13982;DHT22;7065;50.880;5.502;2023-02-23T14:24:50;9.30;99.90
13982;DHT22;7065;50.880;5.502;2023-02-23T14:27:37;9.30;99.90
13982;DHT22;7065;50.880;5.502;2023-02-23T14:32:40;9.20;99.90
13982;DHT22;7065;50.880;5.502;2023-02-23T14:38:07;9.20;99.90
13982;DHT22;7065;50.880;5.502;2023-02-23T14:40:39;9.20;99.90
13982;DHT22;7065;50.880;5.502;2023-02-23T14:46:06;9.20;99.90
13982;DHT22;7065;50.880;5.502;2023-02-23T14:48:33;9.10;99.90
13982;DHT22;7065;50.880;5.502;2023-02-23T14:51:13;9.10;99.90
13982;DHT22;7065;50.880;5.502;2023-02-23T14:53:43;9.10;99.90
13982;DHT22;7065;50.880;5.502;2023-02-23T14:56:19;9.10;99.90
13982;DHT22;7065;50.880;5.502;2023-02-23T14:58:53;9.10;99.90
13982;DHT22;7065;50.880;5.502;2023-02-23T15:01:35;9.10;99.90
13982;DHT22;7065;50.880;5.502;2023-02-23T15:04:10;9.10;99.90
13982;DHT22;7065;50.880;5.502;2023-02-23T15:06:38;9.10;99.90
13982;DHT22;7065;50.880;5.502;2023-02-23T15:09:07;9.10;99.90
13982;DHT22;7065;50.880;5.502;2023-02-23T15:11:40;9.10;99.90
13982;DHT22;7065;50.880;5.502;2023-02-23T15:14:12;9.20;99.90
13982;DHT22;7065;50.880;5.502;2023-02-23T15:16:39;9.10;99.90
13982;DHT22;7065;50.880;5.502;2023-02-23T15:19:07;9.20;99.90
13982;DHT22;7065;50.880;5.502;2023-02-23T15:21:33;9.20;99.90
13982;DHT22;7065;50.880;5.502;2023-02-23T15:24:09;9.10;99.90
13982;DHT22;7065;50.880;5.502;2023-02-23T15:26:38;9.20;99.90
13982;DHT22;7065;50.880;5.502;2023-02-23T15:29:07;9.10;99.90
13982;DHT22;7065;50.880;5.502;2023-02-23T15:31:40;9.10;99.90
13982;DHT22;7065;50.880;5.502;2023-02-23T15:34:15;9.10;99.90
13982;DHT22;7065;50.880;5.502;2023-02-23T15:36:46;9.10;99.90
13982;DHT22;7065;50.880;5.502;2023-02-23T15:39:17;9.10;99.90
13982;DHT22;7065;50.880;5.502;2023-02-23T15:41:45;9.00;99.90
13982;DHT22;7065;50.880;5.502;2023-02-23T15:44:25;9.00;99.90
13982;DHT22;7065;50.880;5.502;2023-02-23T15:46:58;9.00;99.90
13982;DHT22;7065;50.880;5.502;2023-02-23T15:49:34;9.00;99.90
13982;DHT22;7065;50.880;5.502;2023-02-23T15:52:08;9.00;99.90
13982;DHT22;7065;50.880;5.502;2023-02-23T15:57:20;9.00;99.90
13982;DHT22;7065;50.880;5.502;2023-02-23T15:59:49;9.00;99.90
13982;DHT22;7065;50.880;5.502;2023-02-23T16:02:19;9.00;99.90
13982;DHT22;7065;50.880;5.502;2023-02-23T16:04:48;8.90;99.90
13982;DHT22;7065;50.880;5.502;2023-02-23T16:10:02;9.00;99.90
13982;DHT22;7065;50.880;5.502;2023-02-23T16:12:30;9.00;99.90
13982;DHT22;7065;50.880;5.502;2023-02-23T16:15:23;9.00;99.90
13982;DHT22;7065;50.880;5.502;2023-02-23T16:18:16;9.00;99.90
13982;DHT22;7065;50.880;5.502;2023-02-23T16:20:54;9.00;99.90
13982;DHT22;7065;50.880;5.502;2023-02-23T16:23:25;8.90;99.90
13982;DHT22;7065;50.880;5.502;2023-02-23T16:25:56;9.00;99.90
13982;DHT22;7065;50.880;5.502;2023-02-23T16:28:28;9.00;99.90
13982;DHT22;7065;50.880;5.502;2023-02-23T16:31:04;9.00;99.90
13982;DHT22;7065;50.880;5.502;2023-02-23T16:33:41;9.00;99.90
13982;DHT22;7065;50.880;5.502;2023-02-23T16:36:14;8.90;99.90
13982;DHT22;7065;50.880;5.502;2023-02-23T16:41:20;8.90;99.90
13982;DHT22;7065;50.880;5.502;2023-02-23T16:43:51;8.90;99.90
13982;DHT22;7065;50.880;5.502;2023-02-23T16:46:18;8.90;99.90
13982;DHT22;7065;50.880;5.502;2023-02-23T16:48:44;8.80;99.90
13982;DHT22;7065;50.880;5.502;2023-02-23T16:51:15;8.80;99.90
13982;DHT22;7065;50.880;5.502;2023-02-23T16:53:42;8.80;99.90
13982;DHT22;7065;50.880;5.502;2023-02-23T16:56:10;8.80;99.90
13982;DHT22;7065;50.880;5.502;2023-02-23T16:58:42;8.70;99.90
13982;DHT22;7065;50.880;5.502;2023-02-23T17:01:12;8.70;99.90
13982;DHT22;7065;50.880;5.502;2023-02-23T17:03:41;8.70;99.90
13982;DHT22;7065;50.880;5.502;2023-02-23T17:06:08;8.60;99.90
13982;DHT22;7065;50.880;5.502;2023-02-23T17:08:33;8.60;99.90
13982;DHT22;7065;50.880;5.502;2023-02-23T17:11:01;8.60;99.90
13982;DHT22;7065;50.880;5.502;2023-02-23T17:13:28;8.60;99.90
13982;DHT22;7065;50.880;5.502;2023-02-23T17:15:58;8.60;99.90
13982;DHT22;7065;50.880;5.502;2023-02-23T17:18:29;8.60;99.90
13982;DHT22;7065;50.880;5.502;2023-02-23T17:20:57;8.50;99.90
13982;DHT22;7065;50.880;5.502;2023-02-23T17:23:24;8.50;99.90
13982;DHT22;7065;50.880;5.502;2023-02-23T17:25:54;8.50;99.90
13982;DHT22;7065;50.880;5.502;2023-02-23T17:28:21;8.40;99.90
13982;DHT22;7065;50.880;5.502;2023-02-23T17:30:47;8.40;99.90
13982;DHT22;7065;50.880;5.502;2023-02-23T17:33:13;8.40;99.90
13982;DHT22;7065;50.880;5.502;2023-02-23T17:35:39;8.40;99.90
13982;DHT22;7065;50.880;5.502;2023-02-23T17:38:06;8.40;99.90
13982;DHT22;7065;50.880;5.502;2023-02-23T17:40:33;8.30;99.90
13982;DHT22;7065;50.880;5.502;2023-02-23T17:43:05;8.30;99.90
13982;DHT22;7065;50.880;5.502;2023-02-23T17:45:34;8.30;99.90
13982;DHT22;7065;50.880;5.502;2023-02-23T17:48:00;8.30;99.90
13982;DHT22;7065;50.880;5.502;2023-02-23T17:50:27;8.30;99.90
13982;DHT22;7065;50.880;5.502;2023-02-23T17:52:54;8.30;99.90
13982;DHT22;7065;50.880;5.502;2023-02-23T17:55:21;8.30;99.90
13982;DHT22;7065;50.880;5.502;2023-02-23T17:57:47;8.30;99.90
13982;DHT22;7065;50.880;5.502;2023-02-23T18:00:16;8.20;99.90
13982;DHT22;7065;50.880;5.502;2023-02-23T18:02:43;8.20;99.90
13982;DHT22;7065;50.880;5.502;2023-02-23T18:05:11;8.20;99.90
13982;DHT22;7065;50.880;5.502;2023-02-23T18:07:38;8.20;99.90
13982;DHT22;7065;50.880;5.502;2023-02-23T18:10:05;8.10;99.90
13982;DHT22;7065;50.880;5.502;2023-02-23T18:12:31;8.20;99.90
13982;DHT22;7065;50.880;5.502;2023-02-23T18:14:57;8.20;99.90
13982;DHT22;7065;50.880;5.502;2023-02-23T18:17:23;8.20;99.90
13982;DHT22;7065;50.880;5.502;2023-02-23T18:19:49;8.20;99.90
13982;DHT22;7065;50.880;5.502;2023-02-23T18:22:16;8.20;99.90
13982;DHT22;7065;50.880;5.502;2023-02-23T18:24:42;8.20;99.90
13982;DHT22;7065;50.880;5.502;2023-02-23T18:27:07;8.20;99.90
13982;DHT22;7065;50.880;5.502;2023-02-23T18:29:35;8.20;99.90
13982;DHT22;7065;50.880;5.502;2023-02-23T18:32:02;8.10;99.90
13982;DHT22;7065;50.880;5.502;2023-02-23T18:34:29;8.10;99.90
13982;DHT22;7065;50.880;5.502;2023-02-23T18:36:56;8.00;99.90
13982;DHT22;7065;50.880;5.502;2023-02-23T18:39:27;8.00;99.90
13982;DHT22;7065;50.880;5.502;2023-02-23T18:41:54;8.00;99.90
13982;DHT22;7065;50.880;5.502;2023-02-23T18:44:21;7.90;99.90
13982;DHT22;7065;50.880;5.502;2023-02-23T18:46:47;7.90;99.90
13982;DHT22;7065;50.880;5.502;2023-02-23T18:49:19;7.90;99.90
13982;DHT22;7065;50.880;5.502;2023-02-23T18:51:45;7.80;99.90
13982;DHT22;7065;50.880;5.502;2023-02-23T18:54:11;7.80;99.90
13982;DHT22;7065;50.880;5.502;2023-02-23T18:56:42;7.80;99.90